sensor_id;sensor_type;location;lat;lon;timestamp;temperature;humidity
39931;DHT22;26635;-35.248;149.138;2022-12-20T00:00:43;20.70;56.70
39931;DHT22;26635;-35.248;149.138;2022-12-20T00:03:14;20.80;54.10
39931;DHT22;26635;-35.248;149.138;2022-12-20T00:05:46;20.90;54.00
39931;DHT22;26635;-35.248;149.138;2022-12-20T00:08:16;21.00;55.10
39931;DHT22;26635;-35.248;149.138;2022-12-20T00:11:09;21.00;53.60
39931;DHT22;26635;-35.248;149.138;2022-12-20T00:13:40;21.10;54.20
39931;DHT22;26635;-35.248;149.138;2022-12-20T00:16:17;21.20;54.00
39931;DHT22;26635;-35.248;149.138;2022-12-20T00:18:49;21.40;54.80
39931;DHT22;26635;-35.248;149.138;2022-12-20T00:21:21;21.20;54.00
39931;DHT22;26635;-35.248;149.138;2022-12-20T00:23:52;21.10;55.00
39931;DHT22;26635;-35.248;149.138;2022-12-20T00:26:28;21.20;54.30
39931;DHT22;26635;-35.248;149.138;2022-12-20T00:28:58;21.40;55.20
39931;DHT22;26635;-35.248;149.138;2022-12-20T00:31:30;21.60;53.90
39931;DHT22;26635;-35.248;149.138;2022-12-20T00:34:03;21.90;52.70
39931;DHT22;26635;-35.248;149.138;2022-12-20T00:36:34;21.70;51.10
39931;DHT22;26635;-35.248;149.138;2022-12-20T00:39:05;21.60;53.30
39931;DHT22;26635;-35.248;149.138;2022-12-20T00:41:36;21.50;54.10
39931;DHT22;26635;-35.248;149.138;2022-12-20T00:44:07;21.50;54.40
39931;DHT22;26635;-35.248;149.138;2022-12-20T00:46:37;21.40;54.30
39931;DHT22;26635;-35.248;149.138;2022-12-20T00:49:08;21.50;55.00
39931;DHT22;26635;-35.248;149.138;2022-12-20T00:51:38;21.70;55.50
39931;DHT22;26635;-35.248;149.138;2022-12-20T00:54:09;22.00;55.60
39931;DHT22;26635;-35.248;149.138;2022-12-20T00:56:39;22.00;53.70
39931;DHT22;26635;-35.248;149.138;2022-12-20T00:59:10;22.10;52.80
39931;DHT22;26635;-35.248;149.138;2022-12-20T01:01:40;22.40;53.00
39931;DHT22;26635;-35.248;149.138;2022-12-20T01:04:11;22.50;52.00
39931;DHT22;26635;-35.248;149.138;2022-12-20T01:06:41;22.40;52.90
39931;DHT22;26635;-35.248;149.138;2022-12-20T01:09:12;22.50;54.20
39931;DHT22;26635;-35.248;149.138;2022-12-20T01:11:42;22.20;53.30
39931;DHT22;26635;-35.248;149.138;2022-12-20T01:14:15;21.90;53.30
39931;DHT22;26635;-35.248;149.138;2022-12-20T01:16:46;21.80;53.90
39931;DHT22;26635;-35.248;149.138;2022-12-20T01:19:18;21.80;54.70
39931;DHT22;26635;-35.248;149.138;2022-12-20T01:21:49;22.00;55.90
39931;DHT22;26635;-35.248;149.138;2022-12-20T01:24:20;22.10;54.80
39931;DHT22;26635;-35.248;149.138;2022-12-20T01:26:51;22.20;54.50
39931;DHT22;26635;-35.248;149.138;2022-12-20T01:29:21;22.20;54.20
39931;DHT22;26635;-35.248;149.138;2022-12-20T01:31:53;22.40;53.20
39931;DHT22;26635;-35.248;149.138;2022-12-20T01:34:25;22.60;53.70
39931;DHT22;26635;-35.248;149.138;2022-12-20T01:36:57;22.70;53.10
39931;DHT22;26635;-35.248;149.138;2022-12-20T01:39:28;22.80;53.10
39931;DHT22;26635;-35.248;149.138;2022-12-20T01:42:00;22.60;53.00
39931;DHT22;26635;-35.248;149.138;2022-12-20T01:47:02;22.10;54.40
39931;DHT22;26635;-35.248;149.138;2022-12-20T01:49:41;22.20;56.10
39931;DHT22;26635;-35.248;149.138;2022-12-20T01:52:36;22.40;54.60
39931;DHT22;26635;-35.248;149.138;2022-12-20T01:55:17;22.80;55.70
39931;DHT22;26635;-35.248;149.138;2022-12-20T01:58:01;23.20;52.20
39931;DHT22;26635;-35.248;149.138;2022-12-20T02:00:33;23.40;52.40
39931;DHT22;26635;-35.248;149.138;2022-12-20T02:03:06;23.30;53.50
39931;DHT22;26635;-35.248;149.138;2022-12-20T02:05:43;23.50;53.50
39931;DHT22;26635;-35.248;149.138;2022-12-20T02:08:17;23.30;53.50
39931;DHT22;26635;-35.248;149.138;2022-12-20T02:17:00;23.10;53.60
39931;DHT22;26635;-35.248;149.138;2022-12-20T02:30:47;23.80;53.00
39931;DHT22;26635;-35.248;149.138;2022-12-20T02:33:21;23.80;50.20
39931;DHT22;26635;-35.248;149.138;2022-12-20T02:35:54;23.70;52.20
39931;DHT22;26635;-35.248;149.138;2022-12-20T02:41:15;23.60;51.50
39931;DHT22;26635;-35.248;149.138;2022-12-20T02:43:51;23.40;51.70
39931;DHT22;26635;-35.248;149.138;2022-12-20T02:46:42;23.50;52.60
39931;DHT22;26635;-35.248;149.138;2022-12-20T02:49:16;23.70;52.00
39931;DHT22;26635;-35.248;149.138;2022-12-20T02:51:50;23.70;49.90
39931;DHT22;26635;-35.248;149.138;2022-12-20T02:54:23;23.70;50.50
39931;DHT22;26635;-35.248;149.138;2022-12-20T03:02:26;23.70;50.70
39931;DHT22;26635;-35.248;149.138;2022-12-20T03:04:58;23.50;51.30
39931;DHT22;26635;-35.248;149.138;2022-12-20T03:07:33;23.70;52.50
39931;DHT22;26635;-35.248;149.138;2022-12-20T03:10:04;23.70;51.90
39931;DHT22;26635;-35.248;149.138;2022-12-20T03:12:35;23.70;53.00
39931;DHT22;26635;-35.248;149.138;2022-12-20T03:15:06;23.90;52.70
39931;DHT22;26635;-35.248;149.138;2022-12-20T03:17:38;24.00;52.00
39931;DHT22;26635;-35.248;149.138;2022-12-20T03:20:09;24.00;52.70
39931;DHT22;26635;-35.248;149.138;2022-12-20T03:22:40;24.00;50.70
39931;DHT22;26635;-35.248;149.138;2022-12-20T03:25:10;23.60;49.90
39931;DHT22;26635;-35.248;149.138;2022-12-20T03:27:41;23.60;51.50
39931;DHT22;26635;-35.248;149.138;2022-12-20T03:30:12;23.40;53.40
39931;DHT22;26635;-35.248;149.138;2022-12-20T03:32:43;23.30;53.00
39931;DHT22;26635;-35.248;149.138;2022-12-20T03:35:14;23.00;51.50
39931;DHT22;26635;-35.248;149.138;2022-12-20T03:37:45;23.00;52.80
39931;DHT22;26635;-35.248;149.138;2022-12-20T03:40:16;23.10;52.30
39931;DHT22;26635;-35.248;149.138;2022-12-20T03:42:48;23.10;51.90
39931;DHT22;26635;-35.248;149.138;2022-12-20T03:45:18;23.20;53.20
39931;DHT22;26635;-35.248;149.138;2022-12-20T03:47:51;23.40;52.00
39931;DHT22;26635;-35.248;149.138;2022-12-20T03:50:22;23.50;52.10
39931;DHT22;26635;-35.248;149.138;2022-12-20T03:52:53;23.70;50.80
39931;DHT22;26635;-35.248;149.138;2022-12-20T03:55:24;23.70;50.70
39931;DHT22;26635;-35.248;149.138;2022-12-20T03:57:55;23.80;50.80
39931;DHT22;26635;-35.248;149.138;2022-12-20T04:00:25;23.80;51.80
39931;DHT22;26635;-35.248;149.138;2022-12-20T04:02:56;23.90;52.50
39931;DHT22;26635;-35.248;149.138;2022-12-20T04:05:26;23.90;50.80
39931;DHT22;26635;-35.248;149.138;2022-12-20T04:07:56;23.80;50.30
39931;DHT22;26635;-35.248;149.138;2022-12-20T04:10:28;23.90;50.50
39931;DHT22;26635;-35.248;149.138;2022-12-20T04:12:59;23.90;50.10
39931;DHT22;26635;-35.248;149.138;2022-12-20T04:15:29;23.90;51.20
39931;DHT22;26635;-35.248;149.138;2022-12-20T04:18:01;23.80;50.80
39931;DHT22;26635;-35.248;149.138;2022-12-20T04:20:31;23.80;50.50
39931;DHT22;26635;-35.248;149.138;2022-12-20T04:23:02;23.80;51.00
39931;DHT22;26635;-35.248;149.138;2022-12-20T04:25:33;23.70;51.10
39931;DHT22;26635;-35.248;149.138;2022-12-20T04:28:05;23.70;51.00
39931;DHT22;26635;-35.248;149.138;2022-12-20T04:30:36;23.60;50.50
39931;DHT22;26635;-35.248;149.138;2022-12-20T04:33:08;23.50;50.40
39931;DHT22;26635;-35.248;149.138;2022-12-20T04:35:39;23.50;53.40
39931;DHT22;26635;-35.248;149.138;2022-12-20T04:38:09;23.60;51.90
39931;DHT22;26635;-35.248;149.138;2022-12-20T04:40:40;23.50;51.60
39931;DHT22;26635;-35.248;149.138;2022-12-20T04:43:11;23.50;51.90
39931;DHT22;26635;-35.248;149.138;2022-12-20T04:45:41;23.60;52.30
39931;DHT22;26635;-35.248;149.138;2022-12-20T04:48:12;23.50;51.90
39931;DHT22;26635;-35.248;149.138;2022-12-20T04:51:03;23.40;50.60
39931;DHT22;26635;-35.248;149.138;2022-12-20T04:53:33;23.30;52.00
39931;DHT22;26635;-35.248;149.138;2022-12-20T04:56:28;23.30;52.20
39931;DHT22;26635;-35.248;149.138;2022-12-20T04:58:59;23.20;53.10
39931;DHT22;26635;-35.248;149.138;2022-12-20T05:01:31;23.20;53.40
39931;DHT22;26635;-35.248;149.138;2022-12-20T05:04:02;23.10;52.80
39931;DHT22;26635;-35.248;149.138;2022-12-20T05:06:32;23.10;52.80
39931;DHT22;26635;-35.248;149.138;2022-12-20T05:09:03;23.10;52.40
39931;DHT22;26635;-35.248;149.138;2022-12-20T05:11:34;22.90;52.30
39931;DHT22;26635;-35.248;149.138;2022-12-20T05:14:04;23.00;53.80
39931;DHT22;26635;-35.248;149.138;2022-12-20T05:16:35;22.90;53.40
39931;DHT22;26635;-35.248;149.138;2022-12-20T05:19:06;22.90;52.90
39931;DHT22;26635;-35.248;149.138;2022-12-20T05:21:37;22.80;53.90
39931;DHT22;26635;-35.248;149.138;2022-12-20T05:24:25;22.60;53.10
39931;DHT22;26635;-35.248;149.138;2022-12-20T05:27:13;22.50;53.60
39931;DHT22;26635;-35.248;149.138;2022-12-20T05:29:44;22.50;53.80
39931;DHT22;26635;-35.248;149.138;2022-12-20T05:32:15;22.50;54.30
39931;DHT22;26635;-35.248;149.138;2022-12-20T05:34:45;22.50;55.00
39931;DHT22;26635;-35.248;149.138;2022-12-20T05:37:16;22.50;55.00
39931;DHT22;26635;-35.248;149.138;2022-12-20T05:39:46;22.40;53.50
39931;DHT22;26635;-35.248;149.138;2022-12-20T05:42:18;22.30;54.20
39931;DHT22;26635;-35.248;149.138;2022-12-20T05:44:49;22.30;54.60
39931;DHT22;26635;-35.248;149.138;2022-12-20T05:47:20;22.20;54.50
39931;DHT22;26635;-35.248;149.138;2022-12-20T05:49:51;22.10;54.60
39931;DHT22;26635;-35.248;149.138;2022-12-20T05:52:23;22.10;54.70
39931;DHT22;26635;-35.248;149.138;2022-12-20T05:54:55;22.20;54.40
39931;DHT22;26635;-35.248;149.138;2022-12-20T05:57:25;22.10;54.30
39931;DHT22;26635;-35.248;149.138;2022-12-20T05:59:57;22.20;54.70
39931;DHT22;26635;-35.248;149.138;2022-12-20T06:02:29;22.10;54.00
39931;DHT22;26635;-35.248;149.138;2022-12-20T06:05:00;22.10;54.70
39931;DHT22;26635;-35.248;149.138;2022-12-20T06:07:32;22.00;55.70
39931;DHT22;26635;-35.248;149.138;2022-12-20T06:10:04;22.10;55.90
39931;DHT22;26635;-35.248;149.138;2022-12-20T06:12:35;22.00;55.80
39931;DHT22;26635;-35.248;149.138;2022-12-20T06:15:06;22.00;55.70
39931;DHT22;26635;-35.248;149.138;2022-12-20T06:17:39;22.10;55.80
39931;DHT22;26635;-35.248;149.138;2022-12-20T06:20:10;22.10;56.30
39931;DHT22;26635;-35.248;149.138;2022-12-20T06:22:41;22.20;55.10
39931;DHT22;26635;-35.248;149.138;2022-12-20T06:25:12;22.10;56.60
39931;DHT22;26635;-35.248;149.138;2022-12-20T06:27:44;22.10;56.80
39931;DHT22;26635;-35.248;149.138;2022-12-20T06:30:14;22.10;56.70
39931;DHT22;26635;-35.248;149.138;2022-12-20T06:32:45;22.00;56.80
39931;DHT22;26635;-35.248;149.138;2022-12-20T06:35:16;22.00;56.00
39931;DHT22;26635;-35.248;149.138;2022-12-20T06:37:46;22.00;56.60
39931;DHT22;26635;-35.248;149.138;2022-12-20T06:40:17;21.90;56.10
39931;DHT22;26635;-35.248;149.138;2022-12-20T06:42:48;21.80;56.30
39931;DHT22;26635;-35.248;149.138;2022-12-20T06:45:21;21.60;55.70
39931;DHT22;26635;-35.248;149.138;2022-12-20T06:47:51;21.50;55.70
39931;DHT22;26635;-35.248;149.138;2022-12-20T06:50:23;21.40;56.00
39931;DHT22;26635;-35.248;149.138;2022-12-20T06:52:55;21.30;56.20
39931;DHT22;26635;-35.248;149.138;2022-12-20T06:55:25;21.20;56.90
39931;DHT22;26635;-35.248;149.138;2022-12-20T06:57:57;21.10;57.10
39931;DHT22;26635;-35.248;149.138;2022-12-20T07:00:28;21.10;58.90
39931;DHT22;26635;-35.248;149.138;2022-12-20T07:02:59;21.00;57.50
39931;DHT22;26635;-35.248;149.138;2022-12-20T07:05:31;20.90;57.70
39931;DHT22;26635;-35.248;149.138;2022-12-20T07:08:01;20.90;58.70
39931;DHT22;26635;-35.248;149.138;2022-12-20T07:10:36;20.80;58.50
39931;DHT22;26635;-35.248;149.138;2022-12-20T07:13:07;20.80;59.10
39931;DHT22;26635;-35.248;149.138;2022-12-20T07:15:37;20.80;59.70
39931;DHT22;26635;-35.248;149.138;2022-12-20T07:18:08;20.70;58.80
39931;DHT22;26635;-35.248;149.138;2022-12-20T07:20:38;20.70;58.90
39931;DHT22;26635;-35.248;149.138;2022-12-20T07:23:09;20.50;58.50
39931;DHT22;26635;-35.248;149.138;2022-12-20T07:25:40;20.40;58.80
39931;DHT22;26635;-35.248;149.138;2022-12-20T07:28:10;20.30;59.00
39931;DHT22;26635;-35.248;149.138;2022-12-20T07:30:41;20.30;59.10
39931;DHT22;26635;-35.248;149.138;2022-12-20T07:33:12;20.20;59.00
39931;DHT22;26635;-35.248;149.138;2022-12-20T07:35:43;20.20;59.70
39931;DHT22;26635;-35.248;149.138;2022-12-20T07:38:27;20.20;60.10
39931;DHT22;26635;-35.248;149.138;2022-12-20T07:41:00;20.10;59.90
39931;DHT22;26635;-35.248;149.138;2022-12-20T07:43:31;20.10;60.20
39931;DHT22;26635;-35.248;149.138;2022-12-20T07:46:04;20.00;60.50
39931;DHT22;26635;-35.248;149.138;2022-12-20T07:48:36;20.00;60.00
39931;DHT22;26635;-35.248;149.138;2022-12-20T07:51:11;20.00;60.40
39931;DHT22;26635;-35.248;149.138;2022-12-20T07:53:53;19.90;60.10
39931;DHT22;26635;-35.248;149.138;2022-12-20T07:56:27;19.80;60.60
39931;DHT22;26635;-35.248;149.138;2022-12-20T07:59:06;19.80;61.00
39931;DHT22;26635;-35.248;149.138;2022-12-20T08:01:37;19.70;61.00
39931;DHT22;26635;-35.248;149.138;2022-12-20T08:04:23;19.70;61.80
39931;DHT22;26635;-35.248;149.138;2022-12-20T08:06:56;19.60;61.20
39931;DHT22;26635;-35.248;149.138;2022-12-20T08:09:30;19.60;61.60
39931;DHT22;26635;-35.248;149.138;2022-12-20T08:12:23;19.40;61.30
39931;DHT22;26635;-35.248;149.138;2022-12-20T08:15:14;19.30;61.80
39931;DHT22;26635;-35.248;149.138;2022-12-20T08:17:44;19.20;62.00
39931;DHT22;26635;-35.248;149.138;2022-12-20T08:20:15;19.10;62.40
39931;DHT22;26635;-35.248;149.138;2022-12-20T08:22:46;19.00;62.20
39931;DHT22;26635;-35.248;149.138;2022-12-20T08:25:16;18.90;62.70
39931;DHT22;26635;-35.248;149.138;2022-12-20T08:27:47;18.80;63.70
39931;DHT22;26635;-35.248;149.138;2022-12-20T08:30:18;18.80;63.50
39931;DHT22;26635;-35.248;149.138;2022-12-20T08:32:48;18.70;63.50
39931;DHT22;26635;-35.248;149.138;2022-12-20T08:35:19;18.70;63.70
39931;DHT22;26635;-35.248;149.138;2022-12-20T08:37:53;18.70;64.30
39931;DHT22;26635;-35.248;149.138;2022-12-20T08:40:23;18.60;64.30
39931;DHT22;26635;-35.248;149.138;2022-12-20T08:42:54;18.60;64.60
39931;DHT22;26635;-35.248;149.138;2022-12-20T08:45:29;18.40;64.60
39931;DHT22;26635;-35.248;149.138;2022-12-20T08:47:59;18.40;65.00
39931;DHT22;26635;-35.248;149.138;2022-12-20T08:50:31;18.20;65.00
39931;DHT22;26635;-35.248;149.138;2022-12-20T08:53:01;18.10;65.40
39931;DHT22;26635;-35.248;149.138;2022-12-20T08:55:32;18.00;65.70
39931;DHT22;26635;-35.248;149.138;2022-12-20T08:58:02;18.00;66.30
39931;DHT22;26635;-35.248;149.138;2022-12-20T09:00:33;17.90;66.80
39931;DHT22;26635;-35.248;149.138;2022-12-20T09:03:04;17.80;66.50
39931;DHT22;26635;-35.248;149.138;2022-12-20T09:05:42;17.80;67.60
39931;DHT22;26635;-35.248;149.138;2022-12-20T09:08:14;17.70;66.80
39931;DHT22;26635;-35.248;149.138;2022-12-20T09:11:21;17.70;67.00
39931;DHT22;26635;-35.248;149.138;2022-12-20T09:14:11;17.50;66.90
39931;DHT22;26635;-35.248;149.138;2022-12-20T09:16:42;17.40;67.20
39931;DHT22;26635;-35.248;149.138;2022-12-20T09:19:14;17.40;68.20
39931;DHT22;26635;-35.248;149.138;2022-12-20T09:21:54;17.30;67.10
39931;DHT22;26635;-35.248;149.138;2022-12-20T09:24:24;17.30;67.50
39931;DHT22;26635;-35.248;149.138;2022-12-20T09:26:56;17.30;67.40
39931;DHT22;26635;-35.248;149.138;2022-12-20T09:29:27;17.30;67.40
39931;DHT22;26635;-35.248;149.138;2022-12-20T09:32:02;17.20;67.30
39931;DHT22;26635;-35.248;149.138;2022-12-20T09:34:34;17.10;67.20
39931;DHT22;26635;-35.248;149.138;2022-12-20T09:37:05;17.00;67.60
39931;DHT22;26635;-35.248;149.138;2022-12-20T09:39:36;16.90;67.40
39931;DHT22;26635;-35.248;149.138;2022-12-20T09:42:08;16.90;68.30
39931;DHT22;26635;-35.248;149.138;2022-12-20T09:44:40;16.90;67.70
39931;DHT22;26635;-35.248;149.138;2022-12-20T09:47:18;16.80;67.90
39931;DHT22;26635;-35.248;149.138;2022-12-20T09:49:55;16.80;67.20
39931;DHT22;26635;-35.248;149.138;2022-12-20T09:55:46;16.40;67.50
39931;DHT22;26635;-35.248;149.138;2022-12-20T10:01:19;16.30;68.30
39931;DHT22;26635;-35.248;149.138;2022-12-20T10:03:52;16.20;68.40
39931;DHT22;26635;-35.248;149.138;2022-12-20T10:06:39;16.20;68.10
39931;DHT22;26635;-35.248;149.138;2022-12-20T10:24:01;15.70;71.80
39931;DHT22;26635;-35.248;149.138;2022-12-20T10:26:33;15.60;70.60
39931;DHT22;26635;-35.248;149.138;2022-12-20T10:29:04;15.60;71.70
39931;DHT22;26635;-35.248;149.138;2022-12-20T10:31:37;15.50;71.10
39931;DHT22;26635;-35.248;149.138;2022-12-20T10:34:08;15.50;72.50
39931;DHT22;26635;-35.248;149.138;2022-12-20T10:36:39;15.40;72.20
39931;DHT22;26635;-35.248;149.138;2022-12-20T10:39:10;15.40;72.40
39931;DHT22;26635;-35.248;149.138;2022-12-20T10:44:18;15.40;73.20
39931;DHT22;26635;-35.248;149.138;2022-12-20T10:46:57;15.40;73.50
39931;DHT22;26635;-35.248;149.138;2022-12-20T10:49:36;15.40;73.70
39931;DHT22;26635;-35.248;149.138;2022-12-20T10:54:42;15.20;73.30
39931;DHT22;26635;-35.248;149.138;2022-12-20T10:57:25;15.10;73.70
39931;DHT22;26635;-35.248;149.138;2022-12-20T11:00:03;15.10;73.80
39931;DHT22;26635;-35.248;149.138;2022-12-20T11:02:37;15.10;74.10
39931;DHT22;26635;-35.248;149.138;2022-12-20T11:08:24;15.00;74.30
39931;DHT22;26635;-35.248;149.138;2022-12-20T11:13:42;14.90;74.30
39931;DHT22;26635;-35.248;149.138;2022-12-20T11:16:27;14.90;74.90
39931;DHT22;26635;-35.248;149.138;2022-12-20T11:25:05;14.70;75.10
39931;DHT22;26635;-35.248;149.138;2022-12-20T11:31:19;14.60;75.70
39931;DHT22;26635;-35.248;149.138;2022-12-20T11:42:08;14.30;76.10
39931;DHT22;26635;-35.248;149.138;2022-12-20T11:47:44;14.20;76.20
39931;DHT22;26635;-35.248;149.138;2022-12-20T11:53:42;14.20;77.00
39931;DHT22;26635;-35.248;149.138;2022-12-20T11:56:36;14.20;76.80
39931;DHT22;26635;-35.248;149.138;2022-12-20T11:59:24;14.20;77.30
39931;DHT22;26635;-35.248;149.138;2022-12-20T12:02:01;14.10;77.70
39931;DHT22;26635;-35.248;149.138;2022-12-20T12:04:57;14.10;77.30
39931;DHT22;26635;-35.248;149.138;2022-12-20T12:07:34;14.00;77.80
39931;DHT22;26635;-35.248;149.138;2022-12-20T12:13:17;13.90;78.30
39931;DHT22;26635;-35.248;149.138;2022-12-20T12:15:52;13.90;78.50
39931;DHT22;26635;-35.248;149.138;2022-12-20T12:18:28;13.80;78.70
39931;DHT22;26635;-35.248;149.138;2022-12-20T12:21:23;13.80;79.00
39931;DHT22;26635;-35.248;149.138;2022-12-20T12:24:20;13.70;78.50
39931;DHT22;26635;-35.248;149.138;2022-12-20T12:26:52;13.70;79.10
39931;DHT22;26635;-35.248;149.138;2022-12-20T12:29:28;13.70;79.70
39931;DHT22;26635;-35.248;149.138;2022-12-20T12:37:30;13.70;80.60
39931;DHT22;26635;-35.248;149.138;2022-12-20T12:40:29;13.60;80.20
39931;DHT22;26635;-35.248;149.138;2022-12-20T12:43:41;13.60;81.30
39931;DHT22;26635;-35.248;149.138;2022-12-20T12:46:34;13.60;80.50
39931;DHT22;26635;-35.248;149.138;2022-12-20T12:49:15;13.50;81.10
39931;DHT22;26635;-35.248;149.138;2022-12-20T12:51:53;13.40;80.90
39931;DHT22;26635;-35.248;149.138;2022-12-20T12:54:40;13.40;81.10
39931;DHT22;26635;-35.248;149.138;2022-12-20T12:57:17;13.30;81.40
39931;DHT22;26635;-35.248;149.138;2022-12-20T12:59:49;13.20;82.10
39931;DHT22;26635;-35.248;149.138;2022-12-20T13:02:24;13.20;82.50
39931;DHT22;26635;-35.248;149.138;2022-12-20T13:20:27;12.80;83.50
39931;DHT22;26635;-35.248;149.138;2022-12-20T13:25:43;12.80;83.60
39931;DHT22;26635;-35.248;149.138;2022-12-20T13:36:30;12.80;83.40
39931;DHT22;26635;-35.248;149.138;2022-12-20T13:42:26;12.80;83.90
39931;DHT22;26635;-35.248;149.138;2022-12-20T13:45:03;12.80;84.10
39931;DHT22;26635;-35.248;149.138;2022-12-20T13:47:41;12.80;84.00
39931;DHT22;26635;-35.248;149.138;2022-12-20T13:50:49;12.80;84.70
39931;DHT22;26635;-35.248;149.138;2022-12-20T13:53:26;12.80;84.70
39931;DHT22;26635;-35.248;149.138;2022-12-20T13:55:58;12.70;84.70
39931;DHT22;26635;-35.248;149.138;2022-12-20T13:58:48;12.70;85.10
39931;DHT22;26635;-35.248;149.138;2022-12-20T14:01:21;12.70;85.40
39931;DHT22;26635;-35.248;149.138;2022-12-20T14:03:53;12.70;85.20
39931;DHT22;26635;-35.248;149.138;2022-12-20T14:06:25;12.70;85.40
39931;DHT22;26635;-35.248;149.138;2022-12-20T14:08:56;12.70;85.20
39931;DHT22;26635;-35.248;149.138;2022-12-20T14:11:27;12.70;85.60
39931;DHT22;26635;-35.248;149.138;2022-12-20T14:14:03;12.70;85.30
39931;DHT22;26635;-35.248;149.138;2022-12-20T14:16:34;12.70;85.50
39931;DHT22;26635;-35.248;149.138;2022-12-20T14:19:06;12.80;85.70
39931;DHT22;26635;-35.248;149.138;2022-12-20T14:21:41;12.80;86.00
39931;DHT22;26635;-35.248;149.138;2022-12-20T14:24:21;12.80;85.30
39931;DHT22;26635;-35.248;149.138;2022-12-20T14:26:52;12.90;85.50
39931;DHT22;26635;-35.248;149.138;2022-12-20T14:29:29;12.90;85.30
39931;DHT22;26635;-35.248;149.138;2022-12-20T14:32:03;12.90;85.00
39931;DHT22;26635;-35.248;149.138;2022-12-20T14:34:34;13.00;85.30
39931;DHT22;26635;-35.248;149.138;2022-12-20T14:37:38;13.00;85.20
39931;DHT22;26635;-35.248;149.138;2022-12-20T14:42:40;13.10;85.20
39931;DHT22;26635;-35.248;149.138;2022-12-20T14:48:15;13.20;85.40
39931;DHT22;26635;-35.248;149.138;2022-12-20T14:50:53;13.20;85.20
39931;DHT22;26635;-35.248;149.138;2022-12-20T14:53:25;13.20;85.20
39931;DHT22;26635;-35.248;149.138;2022-12-20T14:55:59;13.20;84.80
39931;DHT22;26635;-35.248;149.138;2022-12-20T14:58:38;13.30;85.70
39931;DHT22;26635;-35.248;149.138;2022-12-20T15:01:19;13.30;85.00
39931;DHT22;26635;-35.248;149.138;2022-12-20T15:03:51;13.30;85.60
39931;DHT22;26635;-35.248;149.138;2022-12-20T15:06:42;13.30;86.10
39931;DHT22;26635;-35.248;149.138;2022-12-20T15:09:13;13.40;85.30
39931;DHT22;26635;-35.248;149.138;2022-12-20T15:11:44;13.40;85.10
39931;DHT22;26635;-35.248;149.138;2022-12-20T15:14:34;13.40;85.20
39931;DHT22;26635;-35.248;149.138;2022-12-20T15:17:10;13.40;84.90
39931;DHT22;26635;-35.248;149.138;2022-12-20T15:19:49;13.50;84.90
39931;DHT22;26635;-35.248;149.138;2022-12-20T15:22:20;13.40;85.00
39931;DHT22;26635;-35.248;149.138;2022-12-20T15:24:51;13.50;84.90
39931;DHT22;26635;-35.248;149.138;2022-12-20T15:27:22;13.50;85.30
39931;DHT22;26635;-35.248;149.138;2022-12-20T15:29:53;13.50;85.30
39931;DHT22;26635;-35.248;149.138;2022-12-20T15:32:25;13.50;84.40
39931;DHT22;26635;-35.248;149.138;2022-12-20T15:35:02;13.60;85.20
39931;DHT22;26635;-35.248;149.138;2022-12-20T15:37:33;13.60;85.00
39931;DHT22;26635;-35.248;149.138;2022-12-20T15:40:04;13.60;85.20
39931;DHT22;26635;-35.248;149.138;2022-12-20T15:42:35;13.70;84.40
39931;DHT22;26635;-35.248;149.138;2022-12-20T15:45:12;13.70;84.20
39931;DHT22;26635;-35.248;149.138;2022-12-20T15:47:44;13.70;84.70
39931;DHT22;26635;-35.248;149.138;2022-12-20T15:50:15;13.70;84.40
39931;DHT22;26635;-35.248;149.138;2022-12-20T15:52:46;13.70;84.40
39931;DHT22;26635;-35.248;149.138;2022-12-20T15:55:17;13.70;84.60
39931;DHT22;26635;-35.248;149.138;2022-12-20T15:57:48;13.70;84.40
39931;DHT22;26635;-35.248;149.138;2022-12-20T16:00:18;13.70;85.00
39931;DHT22;26635;-35.248;149.138;2022-12-20T16:02:49;13.70;84.50
39931;DHT22;26635;-35.248;149.138;2022-12-20T16:05:21;13.70;84.20
39931;DHT22;26635;-35.248;149.138;2022-12-20T16:07:51;13.70;84.30
39931;DHT22;26635;-35.248;149.138;2022-12-20T16:10:22;13.80;84.60
39931;DHT22;26635;-35.248;149.138;2022-12-20T16:12:52;13.80;84.90
39931;DHT22;26635;-35.248;149.138;2022-12-20T16:15:24;13.80;84.40
39931;DHT22;26635;-35.248;149.138;2022-12-20T16:17:54;13.80;84.50
39931;DHT22;26635;-35.248;149.138;2022-12-20T16:20:25;13.80;85.00
39931;DHT22;26635;-35.248;149.138;2022-12-20T16:22:56;13.80;84.80
39931;DHT22;26635;-35.248;149.138;2022-12-20T16:25:32;13.70;84.90
39931;DHT22;26635;-35.248;149.138;2022-12-20T16:28:03;13.80;85.10
39931;DHT22;26635;-35.248;149.138;2022-12-20T16:30:34;13.70;84.90
39931;DHT22;26635;-35.248;149.138;2022-12-20T16:33:05;13.70;84.90
39931;DHT22;26635;-35.248;149.138;2022-12-20T16:35:37;13.80;85.30
39931;DHT22;26635;-35.248;149.138;2022-12-20T16:38:08;13.70;84.60
39931;DHT22;26635;-35.248;149.138;2022-12-20T16:40:39;13.70;84.40
39931;DHT22;26635;-35.248;149.138;2022-12-20T16:43:13;13.80;85.00
39931;DHT22;26635;-35.248;149.138;2022-12-20T16:45:46;13.70;85.00
39931;DHT22;26635;-35.248;149.138;2022-12-20T16:48:16;13.70;85.00
39931;DHT22;26635;-35.248;149.138;2022-12-20T16:50:47;13.70;85.30
39931;DHT22;26635;-35.248;149.138;2022-12-20T16:53:17;13.70;85.50
39931;DHT22;26635;-35.248;149.138;2022-12-20T16:55:48;13.70;85.10
39931;DHT22;26635;-35.248;149.138;2022-12-20T16:58:18;13.70;84.80
39931;DHT22;26635;-35.248;149.138;2022-12-20T17:01:02;13.70;85.00
39931;DHT22;26635;-35.248;149.138;2022-12-20T17:03:39;13.70;85.00
39931;DHT22;26635;-35.248;149.138;2022-12-20T17:06:11;13.70;85.30
39931;DHT22;26635;-35.248;149.138;2022-12-20T17:08:43;13.70;85.20
39931;DHT22;26635;-35.248;149.138;2022-12-20T17:11:33;13.70;85.20
39931;DHT22;26635;-35.248;149.138;2022-12-20T17:14:03;13.70;85.10
39931;DHT22;26635;-35.248;149.138;2022-12-20T17:16:41;13.80;85.10
39931;DHT22;26635;-35.248;149.138;2022-12-20T17:19:11;13.70;85.60
39931;DHT22;26635;-35.248;149.138;2022-12-20T17:21:46;13.80;86.60
39931;DHT22;26635;-35.248;149.138;2022-12-20T17:24:33;13.70;85.40
39931;DHT22;26635;-35.248;149.138;2022-12-20T17:27:04;13.80;85.70
39931;DHT22;26635;-35.248;149.138;2022-12-20T17:29:36;13.80;86.00
39931;DHT22;26635;-35.248;149.138;2022-12-20T17:32:22;13.70;86.20
39931;DHT22;26635;-35.248;149.138;2022-12-20T17:34:53;13.70;86.30
39931;DHT22;26635;-35.248;149.138;2022-12-20T17:37:24;13.70;85.70